sensor_id;sensor_type;location;lat;lon;timestamp;P1;P2;P0
76043;PMS7003;64740;34.694;33.088;2024-02-26T00:04:44;6.4;5.7;3.6
76043;PMS7003;64740;34.694;33.088;2024-02-26T00:09:48;6.8;5.9;3.3
76043;PMS7003;64740;34.694;33.088;2024-02-26T00:14:26;6.2;5.3;3.3
76043;PMS7003;64740;34.694;33.088;2024-02-26T00:19:24;7.1;5.4;3.3
76043;PMS7003;64740;34.694;33.088;2024-02-26T00:25:02;6.9;5.7;3.6
76043;PMS7003;64740;34.694;33.088;2024-02-26T00:29:40;7.3;6.2;3.7
76043;PMS7003;64740;34.694;33.088;2024-02-26T00:35:04;6.5;6.1;3.7
76043;PMS7003;64740;34.694;33.088;2024-02-26T00:39:32;6.5;6.1;3.7
76043;PMS7003;64740;34.694;33.088;2024-02-26T00:44:54;5.9;5.3;3.5
76043;PMS7003;64740;34.694;33.088;2024-02-26T00:49:40;6.9;6.2;4
76043;PMS7003;64740;34.694;33.088;2024-02-26T00:54:42;6.5;5.9;3.9
76043;PMS7003;64740;34.694;33.088;2024-02-26T00:59:56;6.3;5.4;3.6
76043;PMS7003;64740;34.694;33.088;2024-02-26T01:05:06;6.7;5.4;3.2
76043;PMS7003;64740;34.694;33.088;2024-02-26T01:09:24;6.7;5.4;3.2
76043;PMS7003;64740;34.694;33.088;2024-02-26T01:15:06;7.1;6.1;3.7
76043;PMS7003;64740;34.694;33.088;2024-02-26T01:20:06;7.2;5.9;3.7
76043;PMS7003;64740;34.694;33.088;2024-02-26T01:24:59;7.2;5.9;3.7
76043;PMS7003;64740;34.694;33.088;2024-02-26T01:29:46;6.3;5.6;3.6
76043;PMS7003;64740;34.694;33.088;2024-02-26T01:34:26;6.2;5.3;3.4
76043;PMS7003;64740;34.694;33.088;2024-02-26T01:39:24;7.4;5.6;3.4
76043;PMS7003;64740;34.694;33.088;2024-02-26T01:44:40;7;5.8;3.8
76043;PMS7003;64740;34.694;33.088;2024-02-26T01:50:04;5.6;5.2;3.3
76043;PMS7003;64740;34.694;33.088;2024-02-26T01:54:40;5.6;5.2;3.3
76043;PMS7003;64740;34.694;33.088;2024-02-26T01:59:26;5.7;5.4;3.5
76043;PMS7003;64740;34.694;33.088;2024-02-26T02:04:24;5.7;5.4;3.5
76043;PMS7003;64740;34.694;33.088;2024-02-26T02:09:20;7.6;6.8;4.2
76043;PMS7003;64740;34.694;33.088;2024-02-26T02:14:40;6.5;6.1;3.8
76043;PMS7003;64740;34.694;33.088;2024-02-26T02:19:54;9;7;3.9
76043;PMS7003;64740;34.694;33.088;2024-02-26T02:24:48;6.6;5.8;3.5
76043;PMS7003;64740;34.694;33.088;2024-02-26T02:29:50;7.2;6.4;3.7
76043;PMS7003;64740;34.694;33.088;2024-02-26T02:35:06;7.3;5.7;3.6
76043;PMS7003;64740;34.694;33.088;2024-02-26T02:39:48;7.3;5.7;3.6
76043;PMS7003;64740;34.694;33.088;2024-02-26T02:44:38;6.3;5.6;3.4
76043;PMS7003;64740;34.694;33.088;2024-02-26T02:49:54;7.5;6.2;4
76043;PMS7003;64740;34.694;33.088;2024-02-26T02:54:57;6.6;5.5;3.7
76043;PMS7003;64740;34.694;33.088;2024-02-26T02:59:26;6.2;5.3;3.5
76043;PMS7003;64740;34.694;33.088;2024-02-26T03:04:46;6.6;5.2;3.3
76043;PMS7003;64740;34.694;33.088;2024-02-26T03:09:24;6.9;6;3.8
76043;PMS7003;64740;34.694;33.088;2024-02-26T03:14:24;6.8;5.6;3.4
76043;PMS7003;64740;34.694;33.088;2024-02-26T03:19:32;6.3;5.4;3.2
76043;PMS7003;64740;34.694;33.088;2024-02-26T03:24:32;7.2;6;3.7
76043;PMS7003;64740;34.694;33.088;2024-02-26T03:29:32;6;5.4;3.3
76043;PMS7003;64740;34.694;33.088;2024-02-26T03:34:34;6.5;5.5;3.4
76043;PMS7003;64740;34.694;33.088;2024-02-26T03:39:40;6.3;5.7;3.6
76043;PMS7003;64740;34.694;33.088;2024-02-26T03:45:06;6.9;5.8;3.4
76043;PMS7003;64740;34.694;33.088;2024-02-26T03:49:40;6.9;5.8;3.4
76043;PMS7003;64740;34.694;33.088;2024-02-26T03:54:42;7.6;6.3;4
76043;PMS7003;64740;34.694;33.088;2024-02-26T03:59:32;6.9;5.8;3.7
76043;PMS7003;64740;34.694;33.088;2024-02-26T04:04:50;6.8;5.7;3.6
76043;PMS7003;64740;34.694;33.088;2024-02-26T04:09:56;7.5;5.8;3.7
76043;PMS7003;64740;34.694;33.088;2024-02-26T04:14:32;7.1;6.6;3.9
76043;PMS7003;64740;34.694;33.088;2024-02-26T04:19:44;7.5;6;3.7
76043;PMS7003;64740;34.694;33.088;2024-02-26T04:24:54;7.4;6.8;4.1
76043;PMS7003;64740;34.694;33.088;2024-02-26T04:30:06;7.2;6.5;3.9
76043;PMS7003;64740;34.694;33.088;2024-02-26T04:34:46;7.2;6.5;3.9
76043;PMS7003;64740;34.694;33.088;2024-02-26T04:40:06;7.9;6.3;4.1
76043;PMS7003;64740;34.694;33.088;2024-02-26T04:44:24;7.9;6.3;4.1
76043;PMS7003;64740;34.694;33.088;2024-02-26T04:49:32;7.1;6.2;3.8
76043;PMS7003;64740;34.694;33.088;2024-02-26T04:54:36;7.9;6.3;4
76043;PMS7003;64740;34.694;33.088;2024-02-26T04:59:40;7.6;6.1;3.8
76043;PMS7003;64740;34.694;33.088;2024-02-26T05:04:24;6.4;5.7;3.7
76043;PMS7003;64740;34.694;33.088;2024-02-26T05:10:06;6.4;5.6;3.7
76043;PMS7003;64740;34.694;33.088;2024-02-26T05:14:52;6.4;5.6;3.7
76043;PMS7003;64740;34.694;33.088;2024-02-26T05:20:04;6.8;5.6;3.4
76043;PMS7003;64740;34.694;33.088;2024-02-26T05:25:02;6.8;5.6;3.4
76043;PMS7003;64740;34.694;33.088;2024-02-26T05:29:32;6.7;5.1;3.3
76043;PMS7003;64740;34.694;33.088;2024-02-26T05:35:04;6.6;5.4;3.3
76043;PMS7003;64740;34.694;33.088;2024-02-26T05:40:02;6.6;5.4;3.3
76043;PMS7003;64740;34.694;33.088;2024-02-26T05:44:54;6.9;5.5;3.4
76043;PMS7003;64740;34.694;33.088;2024-02-26T05:50:05;7;5.7;3.5
76043;PMS7003;64740;34.694;33.088;2024-02-26T05:54:50;7;5.7;3.5
76043;PMS7003;64740;34.694;33.088;2024-02-26T05:59:56;6.8;5.3;3.1
76043;PMS7003;64740;34.694;33.088;2024-02-26T06:05:04;5.9;4.8;2.8
76043;PMS7003;64740;34.694;33.088;2024-02-26T06:09:44;5.9;4.8;2.8
76043;PMS7003;64740;34.694;33.088;2024-02-26T06:15:04;6.7;5.7;3.7
76043;PMS7003;64740;34.694;33.088;2024-02-26T06:19:44;6.7;5.7;3.7
76043;PMS7003;64740;34.694;33.088;2024-02-26T06:24:46;7.6;6.5;4
76043;PMS7003;64740;34.694;33.088;2024-02-26T06:29:54;9.4;7.7;4.8
76043;PMS7003;64740;34.694;33.088;2024-02-26T06:34:40;8.7;7.8;4.7
76043;PMS7003;64740;34.694;33.088;2024-02-26T06:39:32;10.5;8.9;5.5
76043;PMS7003;64740;34.694;33.088;2024-02-26T06:45:03;12.1;10.3;6.5
76043;PMS7003;64740;34.694;33.088;2024-02-26T06:49:54;11.4;9.3;5.7
76043;PMS7003;64740;34.694;33.088;2024-02-26T06:55:02;11.1;9.2;5.9
76043;PMS7003;64740;34.694;33.088;2024-02-26T06:59:54;10.6;8.8;5.9
76043;PMS7003;64740;34.694;33.088;2024-02-26T07:04:44;10.2;9;5.4
76043;PMS7003;64740;34.694;33.088;2024-02-26T07:10:02;11.3;9.2;5.8
76043;PMS7003;64740;34.694;33.088;2024-02-26T07:15:02;10.5;9.2;5.9
76043;PMS7003;64740;34.694;33.088;2024-02-26T07:19:52;12.1;10.2;6.5
76043;PMS7003;64740;34.694;33.088;2024-02-26T07:24:40;11.7;9.8;6
76043;PMS7003;64740;34.694;33.088;2024-02-26T07:29:48;12.1;11;7
76043;PMS7003;64740;34.694;33.088;2024-02-26T07:34:32;12.4;11.1;7.1
76043;PMS7003;64740;34.694;33.088;2024-02-26T07:40:02;12;10.5;6.4
76043;PMS7003;64740;34.694;33.088;2024-02-26T07:44:52;12.3;10.6;7.2
76043;PMS7003;64740;34.694;33.088;2024-02-26T07:50:02;11.6;10.5;6.6
76043;PMS7003;64740;34.694;33.088;2024-02-26T07:54:52;10.9;9.6;6.5
76043;PMS7003;64740;34.694;33.088;2024-02-26T08:00:00;12;10.3;7
76043;PMS7003;64740;34.694;33.088;2024-02-26T08:04:24;11.8;10.5;6.7
76043;PMS7003;64740;34.694;33.088;2024-02-26T08:09:24;13.5;11;7.1
76043;PMS7003;64740;34.694;33.088;2024-02-26T08:14:32;14.8;11.9;7.3
76043;PMS7003;64740;34.694;33.088;2024-02-26T08:19:32;13;11.8;7.5
76043;PMS7003;64740;34.694;33.088;2024-02-26T08:24:46;13.5;11.5;7.2
76043;PMS7003;64740;34.694;33.088;2024-02-26T08:29:40;12.1;10.6;6.2
76043;PMS7003;64740;34.694;33.088;2024-02-26T08:35:04;10;8.3;5.6
76043;PMS7003;64740;34.694;33.088;2024-02-26T08:39:24;10;8.3;5.6
76043;PMS7003;64740;34.694;33.088;2024-02-26T08:45:02;10.3;9.3;5.9
76043;PMS7003;64740;34.694;33.088;2024-02-26T08:49:24;10.8;9.4;5.8
76043;PMS7003;64740;34.694;33.088;2024-02-26T08:54:52;11;9.4;6
76043;PMS7003;64740;34.694;33.088;2024-02-26T08:59:24;10.1;9.5;5.8
76043;PMS7003;64740;34.694;33.088;2024-02-26T09:04:49;12.1;10.3;6.3
76043;PMS7003;64740;34.694;33.088;2024-02-26T09:10:02;12.6;11;6.9
76043;PMS7003;64740;34.694;33.088;2024-02-26T09:14:32;12.2;10.8;7
76043;PMS7003;64740;34.694;33.088;2024-02-26T09:19:26;12.4;11.2;7.1
76043;PMS7003;64740;34.694;33.088;2024-02-26T09:25:02;14.7;11.9;7.6
76043;PMS7003;64740;34.694;33.088;2024-02-26T09:29:56;14.5;11.8;7
76043;PMS7003;64740;34.694;33.088;2024-02-26T09:34:26;13.4;12;7.4
76043;PMS7003;64740;34.694;33.088;2024-02-26T09:39:54;13.3;11.8;7.3
76043;PMS7003;64740;34.694;33.088;2024-02-26T09:44:24;13.4;11;7.3
76043;PMS7003;64740;34.694;33.088;2024-02-26T09:49:50;13.5;10.6;6.5
76043;PMS7003;64740;34.694;33.088;2024-02-26T09:54:24;13.4;11.5;7.2
76043;PMS7003;64740;34.694;33.088;2024-02-26T09:59:24;12.6;10.2;6.4
76043;PMS7003;64740;34.694;33.088;2024-02-26T10:04:24;11.6;9.9;6.5
76043;PMS7003;64740;34.694;33.088;2024-02-26T10:09:32;13.5;11;6.6
76043;PMS7003;64740;34.694;33.088;2024-02-26T10:14:24;11.9;9.5;6.3
76043;PMS7003;64740;34.694;33.088;2024-02-26T10:20:10;11.7;11;7.5
76043;PMS7003;64740;34.694;33.088;2024-02-26T10:24:54;11.7;11;7.5
76043;PMS7003;64740;34.694;33.088;2024-02-26T10:29:50;11.2;10.4;6.6
76043;PMS7003;64740;34.694;33.088;2024-02-26T10:34:40;9.9;8.6;5.8
76043;PMS7003;64740;34.694;33.088;2024-02-26T10:39:50;10.9;9.2;6.1
76043;PMS7003;64740;34.694;33.088;2024-02-26T10:44:34;10.8;9.2;5.9
76043;PMS7003;64740;34.694;33.088;2024-02-26T10:49:33;11.2;9.9;6
76043;PMS7003;64740;34.694;33.088;2024-02-26T10:54:26;11.9;11;6.7
76043;PMS7003;64740;34.694;33.088;2024-02-26T10:59:42;13.1;11.1;7.2
76043;PMS7003;64740;34.694;33.088;2024-02-26T11:05:07;14.6;11.8;7.7
76043;PMS7003;64740;34.694;33.088;2024-02-26T11:09:46;14.6;11.8;7.7
76043;PMS7003;64740;34.694;33.088;2024-02-26T11:14:56;13.2;11.7;7.4
76043;PMS7003;64740;34.694;33.088;2024-02-26T11:19:40;14;12.6;8.2
76043;PMS7003;64740;34.694;33.088;2024-02-26T11:25:04;14.8;13;8
76043;PMS7003;64740;34.694;33.088;2024-02-26T11:29:37;14.8;13;8
76043;PMS7003;64740;34.694;33.088;2024-02-26T11:34:32;12.6;10.9;6.6
76043;PMS7003;64740;34.694;33.088;2024-02-26T11:39:54;13.6;11.4;6.9
76043;PMS7003;64740;34.694;33.088;2024-02-26T11:45:07;12.7;11.3;7.1
76043;PMS7003;64740;34.694;33.088;2024-02-26T11:49:56;12.7;11.3;7.1
76043;PMS7003;64740;34.694;33.088;2024-02-26T11:55:06;13.1;11.2;7.1
76043;PMS7003;64740;34.694;33.088;2024-02-26T11:59:57;13.1;11.2;7.1
76043;PMS7003;64740;34.694;33.088;2024-02-26T12:04:34;12.4;11.1;7.1
76043;PMS7003;64740;34.694;33.088;2024-02-26T12:09:34;12.6;10.5;6.9
76043;PMS7003;64740;34.694;33.088;2024-02-26T12:14:51;11.9;10.9;7
76043;PMS7003;64740;34.694;33.088;2024-02-26T12:19:40;13;11.8;7
76043;PMS7003;64740;34.694;33.088;2024-02-26T12:24:40;12;10.7;6.9
76043;PMS7003;64740;34.694;33.088;2024-02-26T12:29:39;11.7;11;7
76043;PMS7003;64740;34.694;33.088;2024-02-26T12:34:56;13.7;11.7;7.6
76043;PMS7003;64740;34.694;33.088;2024-02-26T12:40:07;13.9;12;7.6
76043;PMS7003;64740;34.694;33.088;2024-02-26T12:44:38;13.9;12;7.6
76043;PMS7003;64740;34.694;33.088;2024-02-26T12:50:07;14.8;13.9;9.2
76043;PMS7003;64740;34.694;33.088;2024-02-26T12:54:33;14.8;13.9;9.2
76043;PMS7003;64740;34.694;33.088;2024-02-26T12:59:24;16.6;15.5;9.4
76043;PMS7003;64740;34.694;33.088;2024-02-26T13:04:27;18;16.2;10.3
76043;PMS7003;64740;34.694;33.088;2024-02-26T13:09:40;19.2;17.4;11.3
76043;PMS7003;64740;34.694;33.088;2024-02-26T13:14:36;18.8;16.9;10.9
76043;PMS7003;64740;34.694;33.088;2024-02-26T13:20:05;18.7;16.8;11.2
76043;PMS7003;64740;34.694;33.088;2024-02-26T13:24:55;18.7;16.8;11.2
76043;PMS7003;64740;34.694;33.088;2024-02-26T13:30:05;18.5;16.5;10.4
76043;PMS7003;64740;34.694;33.088;2024-02-26T13:35:07;24.4;21.6;14.1
76043;PMS7003;64740;34.694;33.088;2024-02-26T13:39:25;24.4;21.6;14.1
76043;PMS7003;64740;34.694;33.088;2024-02-26T13:45:07;24;21.8;13.7
76043;PMS7003;64740;34.694;33.088;2024-02-26T13:49:44;24;21.8;13.7
76043;PMS7003;64740;34.694;33.088;2024-02-26T13:54:56;18.2;16.4;11
76043;PMS7003;64740;34.694;33.088;2024-02-26T13:59:40;17.6;15.7;10.3
76043;PMS7003;64740;34.694;33.088;2024-02-26T14:04:42;16.6;15.1;9.9
76043;PMS7003;64740;34.694;33.088;2024-02-26T14:09:48;18.5;16.3;10.6
76043;PMS7003;64740;34.694;33.088;2024-02-26T14:15:07;17.2;15.4;9.8
76043;PMS7003;64740;34.694;33.088;2024-02-26T14:19:47;17.2;15.4;9.8
76043;PMS7003;64740;34.694;33.088;2024-02-26T14:25:07;19.3;17.2;11.2
76043;PMS7003;64740;34.694;33.088;2024-02-26T14:29:38;19.3;17.2;11.2
76043;PMS7003;64740;34.694;33.088;2024-02-26T14:34:50;22.9;20.2;13.2
76043;PMS7003;64740;34.694;33.088;2024-02-26T14:39:46;23.9;21.1;13.5
76043;PMS7003;64740;34.694;33.088;2024-02-26T14:44:32;24.5;22.2;14.4
76043;PMS7003;64740;34.694;33.088;2024-02-26T14:49:56;26;22.9;14.7
76043;PMS7003;64740;34.694;33.088;2024-02-26T14:54:32;25.6;22.3;13.9
76043;PMS7003;64740;34.694;33.088;2024-02-26T14:59:56;31;27;17.4
76043;PMS7003;64740;34.694;33.088;2024-02-26T15:04:40;35.2;29.7;18.8
76043;PMS7003;64740;34.694;33.088;2024-02-26T15:10:05;36;30.1;19.5
76043;PMS7003;64740;34.694;33.088;2024-02-26T15:14:40;36;30.1;19.5
76043;PMS7003;64740;34.694;33.088;2024-02-26T15:19:28;36.1;31.4;20.4
76043;PMS7003;64740;34.694;33.088;2024-02-26T15:24:43;35.2;30.6;19.1
76043;PMS7003;64740;34.694;33.088;2024-02-26T15:29:52;36.3;31.2;19.6
76043;PMS7003;64740;34.694;33.088;2024-02-26T15:34:38;35.2;30.7;19.6
76043;PMS7003;64740;34.694;33.088;2024-02-26T15:39:50;35.5;30.6;19.4
76043;PMS7003;64740;34.694;33.088;2024-02-26T15:45:07;34.7;29.1;18.6
76043;PMS7003;64740;34.694;33.088;2024-02-26T15:49:34;34.7;29.1;18.6
76043;PMS7003;64740;34.694;33.088;2024-02-26T15:54:55;30.7;27.2;16.7
76043;PMS7003;64740;34.694;33.088;2024-02-26T16:00:07;31.5;27.9;17.4
76043;PMS7003;64740;34.694;33.088;2024-02-26T16:05:05;33.2;28.4;18.4
76043;PMS7003;64740;34.694;33.088;2024-02-26T16:09:56;33.2;28.4;18.4
76043;PMS7003;64740;34.694;33.088;2024-02-26T16:14:26;34;28.7;17.8
76043;PMS7003;64740;34.694;33.088;2024-02-26T16:19:25;36.2;30.3;18.9
76043;PMS7003;64740;34.694;33.088;2024-02-26T16:24:40;32.2;27.3;17
76043;PMS7003;64740;34.694;33.088;2024-02-26T16:29:35;33;28.5;17.9
76043;PMS7003;64740;34.694;33.088;2024-02-26T16:34:24;33.1;28.5;17.7
76043;PMS7003;64740;34.694;33.088;2024-02-26T16:39:55;35.3;30;19
76043;PMS7003;64740;34.694;33.088;2024-02-26T16:44:48;32.8;28;17.5
76043;PMS7003;64740;34.694;33.088;2024-02-26T16:49:46;32.7;27.7;17.3
76043;PMS7003;64740;34.694;33.088;2024-02-26T16:55:05;29.6;25.8;16.2
76043;PMS7003;64740;34.694;33.088;2024-02-26T16:59:31;29.6;25.8;16.2
76043;PMS7003;64740;34.694;33.088;2024-02-26T17:04:55;30.2;26.5;15.9
76043;PMS7003;64740;34.694;33.088;2024-02-26T17:09:33;28.9;25.1;15.5
76043;PMS7003;64740;34.694;33.088;2024-02-26T17:14:49;29.2;24.7;15.6
76043;PMS7003;64740;34.694;33.088;2024-02-26T17:20:05;31.4;26.7;16.1
76043;PMS7003;64740;34.694;33.088;2024-02-26T17:25:06;30.2;25.8;16.1
76043;PMS7003;64740;34.694;33.088;2024-02-26T17:29:25;30.2;25.8;16.1
76043;PMS7003;64740;34.694;33.088;2024-02-26T17:34:51;29.9;25.9;15.4
76043;PMS7003;64740;34.694;33.088;2024-02-26T17:40:05;29.4;24.3;15.3
76043;PMS7003;64740;34.694;33.088;2024-02-26T17:44:57;29.4;24.3;15.3
76043;PMS7003;64740;34.694;33.088;2024-02-26T17:49:47;27.4;23;13.5
76043;PMS7003;64740;34.694;33.088;2024-02-26T17:54:25;30.9;27.1;17
76043;PMS7003;64740;34.694;33.088;2024-02-26T17:59:39;31.8;27.3;17
76043;PMS7003;64740;34.694;33.088;2024-02-26T18:04:33;29.9;27;17.2
76043;PMS7003;64740;34.694;33.088;2024-02-26T18:09:35;33.2;27.7;17.3
76043;PMS7003;64740;34.694;33.088;2024-02-26T18:14:49;25.2;22.3;14.5
76043;PMS7003;64740;34.694;33.088;2024-02-26T18:19:49;26.2;23;14.3
76043;PMS7003;64740;34.694;33.088;2024-02-26T18:25:01;25.9;22.4;14.3
76043;PMS7003;64740;34.694;33.088;2024-02-26T18:30:03;24.9;20.9;13.8
76043;PMS7003;64740;34.694;33.088;2024-02-26T18:34:57;25.7;22.4;14
76043;PMS7003;64740;34.694;33.088;2024-02-26T18:39:49;25.4;21.5;13.7
76043;PMS7003;64740;34.694;33.088;2024-02-26T18:44:25;24.3;21.2;12.9
76043;PMS7003;64740;34.694;33.088;2024-02-26T18:49:41;23.3;20;12.6
76043;PMS7003;64740;34.694;33.088;2024-02-26T18:54:59;23.8;21.5;13.1
76043;PMS7003;64740;34.694;33.088;2024-02-26T18:59:25;22.9;19.6;12
76043;PMS7003;64740;34.694;33.088;2024-02-26T19:04:25;23.7;19.9;13
76043;PMS7003;64740;34.694;33.088;2024-02-26T19:09:57;23.2;20.1;12.4
76043;PMS7003;64740;34.694;33.088;2024-02-26T19:15:07;22.1;17.9;10.6
76043;PMS7003;64740;34.694;33.088;2024-02-26T19:19:37;22.1;17.9;10.6
76043;PMS7003;64740;34.694;33.088;2024-02-26T19:24:35;20.3;17.7;11.3
76043;PMS7003;64740;34.694;33.088;2024-02-26T19:29:41;21.7;17.9;11.5
76043;PMS7003;64740;34.694;33.088;2024-02-26T19:34:25;20.3;17;10.3
76043;PMS7003;64740;34.694;33.088;2024-02-26T19:39:47;18.8;15.4;9.6
76043;PMS7003;64740;34.694;33.088;2024-02-26T19:44:41;17.5;14.9;9.4
76043;PMS7003;64740;34.694;33.088;2024-02-26T19:49:47;17.4;14.3;9.4
76043;PMS7003;64740;34.694;33.088;2024-02-26T19:55:07;14.6;12.7;8.2
76043;PMS7003;64740;34.694;33.088;2024-02-26T19:59:55;14.6;12.7;8.2
76043;PMS7003;64740;34.694;33.088;2024-02-26T20:05:05;13;11.1;7.3
76043;PMS7003;64740;34.694;33.088;2024-02-26T20:10:05;15.4;12.7;7.6
76043;PMS7003;64740;34.694;33.088;2024-02-26T20:14:25;15.4;12.7;7.6
76043;PMS7003;64740;34.694;33.088;2024-02-26T20:20:05;13.9;11;6.9
76043;PMS7003;64740;34.694;33.088;2024-02-26T20:25:05;16.3;12.4;7.6
76043;PMS7003;64740;34.694;33.088;2024-02-26T20:29:55;16.3;12.4;7.6
76043;PMS7003;64740;34.694;33.088;2024-02-26T20:34:33;15.3;12.2;7.7
76043;PMS7003;64740;34.694;33.088;2024-02-26T20:39:41;22.7;18.2;11.5
76043;PMS7003;64740;34.694;33.088;2024-02-26T20:44:35;16.9;13.9;8.5
76043;PMS7003;64740;34.694;33.088;2024-02-26T20:50:05;15.3;13.3;7.8
76043;PMS7003;64740;34.694;33.088;2024-02-26T20:54:43;15.3;13.3;7.8
76043;PMS7003;64740;34.694;33.088;2024-02-26T21:00:05;15.5;12.5;7.7
76043;PMS7003;64740;34.694;33.088;2024-02-26T21:04:25;15.5;12.5;7.7
76043;PMS7003;64740;34.694;33.088;2024-02-26T21:09:25;16.5;13;7.8
76043;PMS7003;64740;34.694;33.088;2024-02-26T21:14:33;20.1;17.2;10.2
76043;PMS7003;64740;34.694;33.088;2024-02-26T21:19:55;24;19.3;11.8
76043;PMS7003;64740;34.694;33.088;2024-02-26T21:24:33;19;15.6;9.2
76043;PMS7003;64740;34.694;33.088;2024-02-26T21:29:33;14.4;12.8;7.7
76043;PMS7003;64740;34.694;33.088;2024-02-26T21:34:57;15.3;12.1;7.1
76043;PMS7003;64740;34.694;33.088;2024-02-26T21:39:35;13;11.2;7
76043;PMS7003;64740;34.694;33.088;2024-02-26T21:45:05;10.3;8.9;5.4
76043;PMS7003;64740;34.694;33.088;2024-02-26T21:50:07;12.8;10.4;6.4
76043;PMS7003;64740;34.694;33.088;2024-02-26T21:55:05;15.4;13.2;8.1
76043;PMS7003;64740;34.694;33.088;2024-02-26T21:59:47;15.4;13.2;8.1
76043;PMS7003;64740;34.694;33.088;2024-02-26T22:04:43;14;12.4;7.1
76043;PMS7003;64740;34.694;33.088;2024-02-26T22:09:41;13.9;11.9;7.3
76043;PMS7003;64740;34.694;33.088;2024-02-26T22:14:51;12.6;10.7;6.8
76043;PMS7003;64740;34.694;33.088;2024-02-26T22:19:57;14.2;12;7.1
76043;PMS7003;64740;34.694;33.088;2024-02-26T22:25:07;13.9;11.1;7.4
76043;PMS7003;64740;34.694;33.088;2024-02-26T22:29:25;13.9;11.1;7.4
76043;PMS7003;64740;34.694;33.088;2024-02-26T22:35:07;14.6;11.4;7.5
76043;PMS7003;64740;34.694;33.088;2024-02-26T22:39:49;14.6;11.4;7.5
76043;PMS7003;64740;34.694;33.088;2024-02-26T22:44:25;15.3;12.5;7.8
76043;PMS7003;64740;34.694;33.088;2024-02-26T22:49:33;14.5;11.7;7.8
76043;PMS7003;64740;34.694;33.088;2024-02-26T22:54:25;15.1;11.9;7.2
76043;PMS7003;64740;34.694;33.088;2024-02-26T22:59:39;13;11.8;7.7
76043;PMS7003;64740;34.694;33.088;2024-02-26T23:04:53;14.5;11.5;7.1
76043;PMS7003;64740;34.694;33.088;2024-02-26T23:09:49;12.8;10.3;6.5
76043;PMS7003;64740;34.694;33.088;2024-02-26T23:14:41;12.6;10.6;6.7
76043;PMS7003;64740;34.694;33.088;2024-02-26T23:19:27;13.3;10.4;6.6
76043;PMS7003;64740;34.694;33.088;2024-02-26T23:24:55;12.7;10.8;6.8
76043;PMS7003;64740;34.694;33.088;2024-02-26T23:29:25;13.9;11.5;7
76043;PMS7003;64740;34.694;33.088;2024-02-26T23:34:39;14.9;12;7.3
76043;PMS7003;64740;34.694;33.088;2024-02-26T23:39:41;14.6;10.8;6.7
76043;PMS7003;64740;34.694;33.088;2024-02-26T23:44:55;12.9;9.9;6.6
76043;PMS7003;64740;34.694;33.088;2024-02-26T23:49:47;12.1;9.7;6.3
76043;PMS7003;64740;34.694;33.088;2024-02-26T23:54:55;10.7;9.5;6.2
76043;PMS7003;64740;34.694;33.088;2024-02-26T23:59:33;12.6;9.9;6.1
